This is the latest recevied weather packets stored in our database for station/object OM6ABF-12. If no packets are shown the sender has not sent any weather packets the latest 10 day(s).
| Time | Temp. | Humidity | Pressure | Rain* | Wind** | Luminosity | Snow |
|---|---|---|---|---|---|---|---|
| 1777055681 | 6.11° C | 57% | 1024.4 hPa | - | - | - | - |
| 1777054724 | 6.11° C | 56% | 1024.2 hPa | - | - | - | - |
| 1777053767 | 6.67° C | 54% | 1024 hPa | - | - | - | - |
| 1777052810 | 7.22° C | 52% | 1024 hPa | - | - | - | - |
| 1777051853 | 7.22° C | 50% | 1024 hPa | - | - | - | - |
| 1777050895 | 7.78° C | 48% | 1023.9 hPa | - | - | - | - |
| 1777049937 | 8.33° C | 47% | 1023.8 hPa | - | - | - | - |
| 1777048978 | 8.33° C | 46% | 1023.8 hPa | - | - | - | - |
| 1777048019 | 8.89° C | 45% | 1023.8 hPa | - | - | - | - |
| 1777047063 | 9.44° C | 44% | 1023.8 hPa | - | - | - | - |
| 1777046105 | 9.44° C | 43% | 1024.1 hPa | - | - | - | - |
| 1777045149 | 11.67° C | 39% | 1024 hPa | - | - | - | - |
| 1777044190 | 11.67° C | 36% | 1024 hPa | - | - | - | - |
| 1777043234 | 11.11° C | 36% | 1024.1 hPa | - | - | - | - |
| 1777042276 | 12.22° C | 35% | 1024 hPa | - | - | - | - |
| 1777041319 | 12.22° C | 35% | 1024.1 hPa | - | - | - | - |
| 1777040362 | 12.78° C | 33% | 1023.9 hPa | - | - | - | - |
| 1777039403 | 12.22° C | 36% | 1024 hPa | - | - | - | - |
| 1777038446 | 13.33° C | 32% | 1023.9 hPa | - | - | - | - |
| 1777037489 | 12.78° C | 34% | 1024 hPa | - | - | - | - |
| 1777036532 | 11.67° C | 36% | 1024.2 hPa | - | - | - | - |
| 1777035574 | 12.78° C | 34% | 1024.2 hPa | - | - | - | - |
| 1777034617 | 12.22° C | 35% | 1024.3 hPa | - | - | - | - |
| 1777033659 | 12.22° C | 33% | 1024.3 hPa | - | - | - | - |
| 1777032701 | 12.78° C | 34% | 1024.4 hPa | - | - | - | - |
* Rain since midnight (hover to see other rain measurements)
** Current wind speed in m/s (hover to see current wind gust speed)